createdAt,value
2023-01-07T00:00:23.260Z,8.90
2023-01-07T00:02:54.598Z,8.83
2023-01-07T00:05:23.096Z,8.85
2023-01-07T00:07:51.554Z,8.81
2023-01-07T00:10:19.957Z,8.77
2023-01-07T00:12:48.432Z,8.76
2023-01-07T00:15:16.908Z,8.74
2023-01-07T00:17:45.361Z,8.68
2023-01-07T00:20:15.392Z,8.64
2023-01-07T00:22:43.833Z,8.64
2023-01-07T00:25:12.351Z,8.61
2023-01-07T00:27:41.532Z,8.60
2023-01-07T00:30:11.504Z,8.59
2023-01-07T00:32:58.223Z,8.56
2023-01-07T00:35:28.643Z,8.53
2023-01-07T00:37:57.324Z,8.50
2023-01-07T00:40:25.819Z,8.44
2023-01-07T00:43:01.627Z,8.42
2023-01-07T00:45:32.431Z,8.43
2023-01-07T00:48:02.044Z,8.42
2023-01-07T00:50:33.611Z,8.35
2023-01-07T00:53:02.372Z,8.37
2023-01-07T00:55:31.228Z,8.36
2023-01-07T00:57:59.933Z,8.35
2023-01-07T01:00:28.546Z,8.25
2023-01-07T01:03:02.885Z,8.31
2023-01-07T01:05:33.201Z,8.28
2023-01-07T01:08:01.599Z,8.28
2023-01-07T01:10:30.036Z,8.23
2023-01-07T01:12:58.508Z,8.25
2023-01-07T01:15:27.258Z,8.20
2023-01-07T01:17:56.159Z,8.22
2023-01-07T01:20:24.975Z,8.20
2023-01-07T01:22:54.865Z,8.15
2023-01-07T01:25:23.316Z,8.20
2023-01-07T01:27:51.831Z,8.16
2023-01-07T01:30:20.437Z,8.21
2023-01-07T01:32:48.998Z,8.22
2023-01-07T01:35:17.680Z,8.20
2023-01-07T01:37:46.150Z,8.16
2023-01-07T01:40:16.089Z,8.16
2023-01-07T01:42:44.547Z,8.15
2023-01-07T01:45:14.060Z,8.13
2023-01-07T01:47:47.756Z,8.10
2023-01-07T01:50:21.540Z,8.09
2023-01-07T01:52:54.611Z,8.00
2023-01-07T01:55:30.630Z,8.07
2023-01-07T01:58:04.543Z,8.05
2023-01-07T02:00:34.163Z,8.02
2023-01-07T02:03:04.013Z,8.00
2023-01-07T02:05:37.358Z,7.99
2023-01-07T02:08:06.967Z,7.94
2023-01-07T02:10:37.244Z,7.84
2023-01-07T02:13:27.927Z,7.92
2023-01-07T02:16:05.055Z,7.89
2023-01-07T02:18:49.417Z,7.87
2023-01-07T02:21:28.040Z,7.79
2023-01-07T02:24:46.786Z,7.88
2023-01-07T02:27:29.068Z,7.88
2023-01-07T02:30:30.748Z,7.89
2023-01-07T02:33:35.122Z,7.88
2023-01-07T02:36:31.983Z,7.87
2023-01-07T02:39:14.950Z,7.83
2023-01-07T02:41:49.719Z,7.83
2023-01-07T02:44:28.039Z,7.78
2023-01-07T02:47:02.803Z,7.75
2023-01-07T02:49:32.790Z,7.69
2023-01-07T02:52:19.365Z,7.67
2023-01-07T02:54:53.287Z,7.64
2023-01-07T02:57:43.992Z,7.64
2023-01-07T03:00:28.850Z,7.62
2023-01-07T03:03:22.248Z,7.63
2023-01-07T03:06:07.229Z,7.62
2023-01-07T03:08:50.740Z,7.60
2023-01-07T03:11:21.141Z,7.57
2023-01-07T03:13:53.009Z,7.57
2023-01-07T03:16:25.956Z,7.55
2023-01-07T03:19:01.027Z,7.53
2023-01-07T03:21:32.977Z,7.48
2023-01-07T03:24:03.630Z,7.49
2023-01-07T03:26:34.937Z,7.50
2023-01-07T03:29:06.243Z,7.48
2023-01-07T03:31:36.020Z,7.50
2023-01-07T03:34:08.964Z,7.50
2023-01-07T03:36:42.120Z,7.50
2023-01-07T03:39:13.014Z,7.48
2023-01-07T03:42:13.852Z,7.49
2023-01-07T03:44:42.613Z,7.45
2023-01-07T03:47:11.697Z,7.47
2023-01-07T03:49:40.327Z,7.48
2023-01-07T03:52:10.206Z,7.38
2023-01-07T03:54:39.255Z,7.47
2023-01-07T03:57:07.799Z,7.46
2023-01-07T03:59:36.390Z,7.45
2023-01-07T04:02:05.101Z,7.40
2023-01-07T04:04:33.848Z,7.42
2023-01-07T04:07:02.484Z,7.42
2023-01-07T04:09:32.491Z,7.42
2023-01-07T04:12:01.072Z,7.43
2023-01-07T04:14:32.217Z,7.38
2023-01-07T04:17:00.723Z,7.44
2023-01-07T04:19:29.296Z,7.41
2023-01-07T04:21:57.875Z,7.44
2023-01-07T04:24:26.526Z,7.36
2023-01-07T04:26:56.501Z,7.41
2023-01-07T04:29:25.015Z,7.41
2023-01-07T04:31:53.504Z,7.40
2023-01-07T04:34:22.361Z,7.43
2023-01-07T04:36:50.955Z,7.38
2023-01-07T04:39:19.695Z,7.39
2023-01-07T04:41:48.230Z,7.40
2023-01-07T04:44:18.606Z,7.39
2023-01-07T04:46:47.247Z,7.40
2023-01-07T04:49:15.728Z,7.37
2023-01-07T04:51:44.220Z,7.37
2023-01-07T04:54:12.762Z,7.35
2023-01-07T04:56:41.286Z,7.29
2023-01-07T04:59:09.779Z,7.32
2023-01-07T05:01:39.888Z,7.22
2023-01-07T05:04:08.627Z,7.20
2023-01-07T05:06:37.204Z,7.21
2023-01-07T05:09:05.930Z,7.08
2023-01-07T05:11:34.462Z,7.18
2023-01-07T05:14:03.067Z,7.14
2023-01-07T05:16:31.728Z,7.11
2023-01-07T05:19:01.696Z,7.01
2023-01-07T05:21:30.198Z,7.07
2023-01-07T05:23:58.736Z,7.04
2023-01-07T05:26:27.234Z,7.03
2023-01-07T05:28:55.724Z,7.00
2023-01-07T05:31:24.304Z,6.96
2023-01-07T05:33:52.792Z,6.93
2023-01-07T05:36:22.748Z,6.92
2023-01-07T05:38:51.236Z,6.87
2023-01-07T05:41:19.993Z,6.88
2023-01-07T05:43:48.664Z,6.87
2023-01-07T05:46:17.295Z,6.83
2023-01-07T05:48:45.970Z,6.84
2023-01-07T05:51:14.440Z,6.74
2023-01-07T05:53:44.567Z,6.85
2023-01-07T05:56:13.060Z,6.84
2023-01-07T05:58:41.646Z,6.82
2023-01-07T06:01:10.223Z,6.78
2023-01-07T06:03:38.829Z,6.76
2023-01-07T06:06:08.477Z,6.74
2023-01-07T06:08:39.264Z,6.70
2023-01-07T06:11:10.008Z,6.70
2023-01-07T06:13:38.516Z,6.69
2023-01-07T06:16:09.603Z,6.66
2023-01-07T06:18:38.843Z,6.66
2023-01-07T06:21:07.659Z,6.66
2023-01-07T06:23:37.461Z,6.66
2023-01-07T06:26:06.245Z,6.67
2023-01-07T06:28:36.275Z,6.68
2023-01-07T06:31:04.851Z,6.69
2023-01-07T06:33:33.707Z,6.70
2023-01-07T06:36:02.340Z,6.68
2023-01-07T06:38:30.833Z,6.67
2023-01-07T06:40:59.928Z,6.64
2023-01-07T06:43:28.510Z,6.64
2023-01-07T06:45:58.600Z,6.54
2023-01-07T06:48:27.119Z,6.66
2023-01-07T06:50:55.631Z,6.63
2023-01-07T06:53:24.057Z,6.64
2023-01-07T06:55:53.425Z,6.67
2023-01-07T06:58:21.885Z,6.62
2023-01-07T07:00:50.516Z,6.64
2023-01-07T07:03:20.472Z,6.56
2023-01-07T07:05:48.912Z,6.66
2023-01-07T07:08:17.375Z,6.68
2023-01-07T07:10:45.792Z,6.63
2023-01-07T07:13:14.259Z,6.60
2023-01-07T07:15:42.871Z,6.70
2023-01-07T07:18:11.430Z,6.61
2023-01-07T07:20:41.463Z,6.69
2023-01-07T07:23:10.000Z,6.69
2023-01-07T07:25:38.610Z,6.74
2023-01-07T07:28:07.303Z,6.69
2023-01-07T07:30:45.579Z,6.78
2023-01-07T07:33:19.329Z,6.81
2023-01-07T07:35:50.514Z,6.83
2023-01-07T07:38:19.387Z,6.84
2023-01-07T07:40:48.269Z,6.86
2023-01-07T07:43:17.322Z,6.82
2023-01-07T07:45:46.238Z,6.89
2023-01-07T07:48:16.561Z,6.90
2023-01-07T07:50:45.040Z,6.89
2023-01-07T07:53:15.400Z,6.89
2023-01-07T07:55:43.861Z,6.93
2023-01-07T07:58:12.294Z,6.92
2023-01-07T08:00:41.182Z,6.96
2023-01-07T08:03:10.381Z,6.99
2023-01-07T08:05:42.926Z,7.01
2023-01-07T08:08:13.156Z,6.96
2023-01-07T08:10:43.050Z,7.07
2023-01-07T08:13:11.705Z,7.02
2023-01-07T08:15:40.139Z,7.10
2023-01-07T08:18:11.490Z,7.13
2023-01-07T08:20:40.852Z,7.15
2023-01-07T08:23:10.210Z,7.15
2023-01-07T08:25:38.889Z,7.14
2023-01-07T08:28:08.848Z,7.25
2023-01-07T08:30:37.681Z,7.28
2023-01-07T08:33:07.100Z,7.33
2023-01-07T08:35:36.354Z,7.28
2023-01-07T08:38:06.394Z,7.40
2023-01-07T08:40:35.685Z,7.42
2023-01-07T08:43:06.389Z,7.45
2023-01-07T08:45:36.649Z,7.47
2023-01-07T08:48:05.921Z,7.49
2023-01-07T08:50:35.576Z,7.51
2023-01-07T08:53:05.698Z,7.47
2023-01-07T08:55:35.861Z,7.54
2023-01-07T08:58:06.577Z,7.52
2023-01-07T09:00:38.760Z,7.61
2023-01-07T09:03:10.117Z,7.62
2023-01-07T09:05:40.478Z,7.66
2023-01-07T09:08:10.124Z,7.66
2023-01-07T09:10:40.375Z,7.71
2023-01-07T09:13:10.704Z,7.72
2023-01-07T09:15:42.356Z,7.66
2023-01-07T09:18:14.341Z,7.79
2023-01-07T09:20:43.767Z,7.83
2023-01-07T09:23:13.459Z,7.81
2023-01-07T09:25:46.469Z,7.81
2023-01-07T09:28:17.520Z,7.81
2023-01-07T09:30:49.686Z,7.82
2023-01-07T09:33:20.438Z,7.82
2023-01-07T09:35:49.219Z,7.86
2023-01-07T09:38:17.680Z,7.84
2023-01-07T09:40:47.048Z,7.81
2023-01-07T09:43:20.123Z,7.84
2023-01-07T09:45:52.260Z,7.93
2023-01-07T09:48:29.745Z,7.99
2023-01-07T09:51:04.229Z,7.96
2023-01-07T09:53:36.447Z,8.09
2023-01-07T09:56:10.716Z,8.16
2023-01-07T09:58:43.533Z,8.20
2023-01-07T10:01:38.406Z,8.24
2023-01-07T10:04:26.603Z,8.30
2023-01-07T10:07:05.410Z,8.33
2023-01-07T10:09:43.179Z,8.36
2023-01-07T10:12:21.524Z,8.35
2023-01-07T10:15:13.490Z,8.47
2023-01-07T10:17:54.244Z,8.51
2023-01-07T10:20:33.386Z,8.53
2023-01-07T10:23:06.104Z,8.55
2023-01-07T10:25:38.238Z,8.56
2023-01-07T10:28:11.235Z,8.63
2023-01-07T10:30:45.291Z,8.68
2023-01-07T10:33:20.946Z,8.64
2023-01-07T10:35:53.388Z,8.77
2023-01-07T10:38:22.525Z,8.80
2023-01-07T10:40:56.430Z,9.05
2023-01-07T10:43:37.803Z,9.36
2023-01-07T10:46:21.330Z,9.30
2023-01-07T10:49:17.649Z,9.27
2023-01-07T10:52:05.744Z,9.25
2023-01-07T10:54:52.984Z,9.24
2023-01-07T10:57:24.267Z,9.26
2023-01-07T10:59:55.092Z,9.27
2023-01-07T11:02:27.703Z,9.28
2023-01-07T11:04:58.694Z,9.32
2023-01-07T11:07:34.893Z,9.36
2023-01-07T11:10:06.901Z,9.42
2023-01-07T11:12:39.469Z,9.49
2023-01-07T11:15:10.337Z,9.50
2023-01-07T11:17:43.413Z,9.50
2023-01-07T11:20:13.803Z,9.50
2023-01-07T11:22:42.424Z,9.59
2023-01-07T11:25:28.948Z,9.65
2023-01-07T11:27:59.681Z,9.69
2023-01-07T11:30:30.018Z,9.73
2023-01-07T11:33:00.872Z,9.77
2023-01-07T11:35:31.083Z,9.86
2023-01-07T11:38:00.526Z,9.93
2023-01-07T11:40:30.955Z,10.22
2023-01-07T11:43:02.176Z,10.26
2023-01-07T11:45:34.492Z,10.24
2023-01-07T11:48:14.288Z,10.41
2023-01-07T11:50:45.967Z,10.52
2023-01-07T11:53:32.760Z,10.64
2023-01-07T11:56:06.642Z,10.74
2023-01-07T11:58:44.160Z,10.75
2023-01-07T12:01:17.590Z,10.79
2023-01-07T12:04:03.217Z,10.91
2023-01-07T12:06:39.672Z,10.97
2023-01-07T12:09:24.345Z,10.99
2023-01-07T12:11:54.312Z,11.03
2023-01-07T12:14:28.238Z,11.06
2023-01-07T12:16:58.075Z,11.06
2023-01-07T12:19:44.233Z,11.08
2023-01-07T12:22:25.645Z,11.12
2023-01-07T12:25:11.302Z,11.13
2023-01-07T12:27:55.360Z,11.21
2023-01-07T12:30:44.092Z,11.20
2023-01-07T12:33:23.347Z,11.15
2023-01-07T12:35:53.313Z,11.27
2023-01-07T12:38:27.422Z,11.33
2023-01-07T12:40:59.896Z,11.39
2023-01-07T12:43:34.158Z,11.47
2023-01-07T12:46:05.338Z,11.55
2023-01-07T12:48:42.517Z,11.62
2023-01-07T12:51:21.335Z,11.69
2023-01-07T12:53:56.162Z,11.83
2023-01-07T12:56:31.822Z,11.94
2023-01-07T12:59:05.086Z,11.99
2023-01-07T13:01:38.406Z,12.03
2023-01-07T13:04:16.265Z,12.01
2023-01-07T13:06:51.481Z,12.04
2023-01-07T13:09:29.752Z,12.11
2023-01-07T13:12:42.314Z,12.27
2023-01-07T13:15:20.166Z,12.36
2023-01-07T13:17:50.572Z,12.46
2023-01-07T13:20:42.941Z,12.53
2023-01-07T13:23:21.283Z,12.52
2023-01-07T13:26:15.214Z,12.44
2023-01-07T13:29:02.159Z,12.49
2023-01-07T13:31:47.150Z,12.49
2023-01-07T13:34:26.541Z,12.57
2023-01-07T13:37:09.951Z,12.69
2023-01-07T13:40:06.074Z,12.81
2023-01-07T13:42:46.357Z,12.89
2023-01-07T13:45:17.606Z,12.95
2023-01-07T13:47:51.916Z,12.97
2023-01-07T13:50:25.290Z,13.06
2023-01-07T13:53:04.827Z,13.06
2023-01-07T13:55:39.864Z,13.10
2023-01-07T13:58:44.900Z,13.16
2023-01-07T14:01:15.389Z,13.16
2023-01-07T14:03:53.834Z,13.19
2023-01-07T14:06:44.267Z,13.26
2023-01-07T14:09:33.014Z,13.20
2023-01-07T14:12:34.680Z,13.08
2023-01-07T14:15:20.694Z,12.87
2023-01-07T14:18:02.964Z,12.75
2023-01-07T14:20:42.651Z,12.64
2023-01-07T14:23:22.920Z,12.52
2023-01-07T14:26:04.142Z,12.40
2023-01-07T14:29:05.749Z,12.34
2023-01-07T14:31:36.026Z,12.19
2023-01-07T14:34:07.491Z,12.11
2023-01-07T14:37:15.110Z,12.13
2023-01-07T14:39:45.356Z,12.09
2023-01-07T14:42:42.802Z,11.98
2023-01-07T14:45:44.171Z,11.97
2023-01-07T14:48:36.923Z,11.89
2023-01-07T14:51:37.838Z,11.75
2023-01-07T14:54:48.842Z,11.57
2023-01-07T14:57:29.473Z,11.31
2023-01-07T15:00:34.212Z,11.04
2023-01-07T15:03:27.134Z,10.89
2023-01-07T15:06:23.232Z,10.97
2023-01-07T15:09:13.825Z,10.85
2023-01-07T15:12:01.755Z,10.71
2023-01-07T15:14:51.155Z,10.51
2023-01-07T15:17:19.754Z,10.31
2023-01-07T15:19:48.448Z,10.22
2023-01-07T15:22:35.043Z,10.10
2023-01-07T15:25:12.183Z,9.94
2023-01-07T15:27:51.316Z,9.91
2023-01-07T15:30:36.013Z,9.90
2023-01-07T15:33:15.192Z,9.80
2023-01-07T15:35:45.846Z,9.80
2023-01-07T15:38:29.367Z,9.58
2023-01-07T15:41:00.416Z,9.72
2023-01-07T15:43:31.657Z,9.68
2023-01-07T15:46:04.243Z,9.67
2023-01-07T15:48:33.599Z,9.46
2023-01-07T15:51:02.661Z,9.40
2023-01-07T15:53:32.766Z,9.24
2023-01-07T15:56:05.458Z,9.20
2023-01-07T15:58:37.546Z,9.15
2023-01-07T16:01:07.907Z,8.88
2023-01-07T16:03:40.117Z,8.90
2023-01-07T16:06:27.901Z,9.07
2023-01-07T16:08:58.488Z,8.96
2023-01-07T16:11:33.741Z,8.88
2023-01-07T16:14:04.352Z,8.97
2023-01-07T16:16:34.041Z,8.90
2023-01-07T16:19:06.895Z,8.85
2023-01-07T16:21:44.100Z,8.70
2023-01-07T16:24:17.456Z,8.68
2023-01-07T16:26:48.574Z,8.72
2023-01-07T16:29:21.609Z,8.61
2023-01-07T16:31:52.757Z,8.39
2023-01-07T16:34:56.725Z,8.52
2023-01-07T16:37:38.105Z,8.46
2023-01-07T16:40:23.415Z,8.39
2023-01-07T16:42:52.891Z,8.25
2023-01-07T16:45:30.633Z,8.26
2023-01-07T16:48:14.209Z,8.26
2023-01-07T16:50:44.075Z,8.27
2023-01-07T16:53:30.982Z,8.18
2023-01-07T16:56:27.808Z,8.11
2023-01-07T16:58:57.893Z,8.06
2023-01-07T17:01:33.880Z,8.05
2023-01-07T17:04:08.735Z,8.00
2023-01-07T17:06:40.797Z,8.02
2023-01-07T17:09:22.283Z,7.91
2023-01-07T17:11:53.694Z,7.84
2023-01-07T17:14:50.505Z,7.76
2023-01-07T17:17:35.290Z,7.71
2023-01-07T17:20:20.666Z,7.63
2023-01-07T17:22:49.968Z,7.64
2023-01-07T17:25:26.174Z,7.53
2023-01-07T17:27:59.432Z,7.48
2023-01-07T17:30:34.152Z,7.48
2023-01-07T17:33:03.741Z,7.39
2023-01-07T17:35:32.335Z,7.39
2023-01-07T17:38:01.290Z,7.35
2023-01-07T17:40:30.779Z,7.35
2023-01-07T17:43:17.810Z,7.19
2023-01-07T17:45:46.360Z,7.09
2023-01-07T17:48:15.802Z,7.04
2023-01-07T17:50:44.750Z,7.00
2023-01-07T17:53:23.558Z,7.05
2023-01-07T17:55:52.165Z,7.12
2023-01-07T17:58:27.908Z,7.11
2023-01-07T18:00:57.458Z,7.17
2023-01-07T18:03:26.840Z,7.20
2023-01-07T18:05:55.463Z,7.19
2023-01-07T18:08:24.125Z,7.20
2023-01-07T18:11:11.420Z,7.06
2023-01-07T18:13:41.996Z,6.88
2023-01-07T18:16:13.619Z,6.90
2023-01-07T18:18:42.530Z,6.96
2023-01-07T18:21:13.464Z,6.95
2023-01-07T18:23:42.026Z,6.98
2023-01-07T18:26:10.841Z,6.93
2023-01-07T18:28:40.977Z,7.02
2023-01-07T18:31:09.649Z,7.07
2023-01-07T18:33:39.270Z,7.11
2023-01-07T18:36:08.483Z,7.15
2023-01-07T18:38:36.949Z,7.14
2023-01-07T18:41:05.539Z,7.03
2023-01-07T18:43:34.027Z,7.07
2023-01-07T18:46:09.527Z,7.00
2023-01-07T18:48:38.419Z,6.95
2023-01-07T18:51:11.866Z,6.95
2023-01-07T18:53:40.785Z,6.90
2023-01-07T18:56:11.975Z,6.93
2023-01-07T18:58:43.283Z,6.93
2023-01-07T19:01:14.034Z,6.89
2023-01-07T19:03:42.711Z,6.83
2023-01-07T19:06:12.766Z,6.89
2023-01-07T19:08:41.313Z,6.88
2023-01-07T19:11:10.620Z,6.94
2023-01-07T19:13:39.156Z,6.98
2023-01-07T19:16:08.550Z,6.95
2023-01-07T19:18:38.827Z,6.90
2023-01-07T19:21:09.473Z,6.91
2023-01-07T19:23:38.006Z,6.86
2023-01-07T19:26:08.308Z,6.84
2023-01-07T19:28:36.879Z,6.72
2023-01-07T19:31:07.873Z,6.63
2023-01-07T19:33:39.776Z,6.65
2023-01-07T19:36:10.488Z,6.63
2023-01-07T19:38:42.978Z,6.61
2023-01-07T19:41:13.966Z,6.54
2023-01-07T19:43:43.333Z,6.52
2023-01-07T19:46:12.983Z,6.50
2023-01-07T19:48:43.068Z,6.40
2023-01-07T19:51:12.170Z,6.45
2023-01-07T19:53:41.533Z,6.44
2023-01-07T19:56:14.162Z,6.39
2023-01-07T19:58:43.667Z,6.33
2023-01-07T20:01:14.691Z,6.23
2023-01-07T20:03:45.749Z,6.14
2023-01-07T20:06:16.492Z,6.21
2023-01-07T20:08:45.442Z,6.15
2023-01-07T20:11:14.601Z,6.20
2023-01-07T20:13:45.968Z,6.18
2023-01-07T20:16:17.019Z,6.17
2023-01-07T20:18:49.570Z,6.11
2023-01-07T20:21:20.291Z,6.06
2023-01-07T20:23:49.199Z,6.03
2023-01-07T20:26:19.895Z,6.02
2023-01-07T20:28:49.760Z,5.92
2023-01-07T20:31:21.250Z,5.90
2023-01-07T20:33:51.768Z,5.83
2023-01-07T20:36:24.195Z,5.82
2023-01-07T20:38:56.918Z,5.73
2023-01-07T20:41:28.338Z,5.71
2023-01-07T20:43:59.677Z,5.72
2023-01-07T20:46:30.196Z,5.69
2023-01-07T20:49:01.470Z,5.64
2023-01-07T20:51:30.202Z,5.69
2023-01-07T20:53:59.735Z,5.65
2023-01-07T20:56:32.503Z,5.59
2023-01-07T20:59:01.878Z,5.55
2023-01-07T21:01:30.884Z,5.54
2023-01-07T21:04:02.100Z,5.49
2023-01-07T21:06:30.716Z,5.40
2023-01-07T21:08:59.464Z,5.44
2023-01-07T21:11:28.180Z,5.44
2023-01-07T21:14:00.221Z,5.42
2023-01-07T21:16:29.542Z,5.37
2023-01-07T21:18:58.505Z,5.25
2023-01-07T21:21:28.536Z,5.22
2023-01-07T21:23:57.069Z,5.25
2023-01-07T21:26:26.418Z,5.25
2023-01-07T21:28:57.003Z,5.21
2023-01-07T21:31:26.628Z,5.18
2023-01-07T21:33:57.080Z,5.05
2023-01-07T21:36:28.633Z,5.08
2023-01-07T21:38:59.099Z,5.10
2023-01-07T21:41:29.766Z,5.03
2023-01-07T21:43:58.826Z,5.00
2023-01-07T21:46:27.871Z,5.02
2023-01-07T21:48:57.060Z,4.98
2023-01-07T21:51:29.149Z,4.97
2023-01-07T21:53:59.353Z,4.97
2023-01-07T21:56:31.520Z,4.93
2023-01-07T21:59:00.209Z,4.90
2023-01-07T22:01:30.078Z,4.91
2023-01-07T22:04:00.105Z,4.85
2023-01-07T22:06:31.917Z,4.77
2023-01-07T22:09:06.260Z,4.82
2023-01-07T22:11:35.915Z,4.79
2023-01-07T22:14:05.217Z,4.78
2023-01-07T22:16:33.873Z,4.79
2023-01-07T22:19:03.025Z,4.81
2023-01-07T22:21:33.701Z,4.72
2023-01-07T22:24:02.216Z,4.72
2023-01-07T22:26:30.823Z,4.73
2023-01-07T22:29:03.124Z,4.74
2023-01-07T22:31:33.768Z,4.67
2023-01-07T22:34:02.689Z,4.67
2023-01-07T22:36:39.817Z,4.66
2023-01-07T22:39:15.277Z,4.64
2023-01-07T22:41:44.049Z,4.69
2023-01-07T22:44:17.803Z,4.66
2023-01-07T22:46:50.281Z,4.66
2023-01-07T22:49:19.618Z,4.68
2023-01-07T22:51:50.515Z,4.65
2023-01-07T22:54:19.516Z,4.59
2023-01-07T22:56:48.835Z,4.60
2023-01-07T22:59:17.301Z,4.61
2023-01-07T23:01:45.858Z,4.55
2023-01-07T23:04:14.658Z,4.54
2023-01-07T23:06:43.373Z,4.52
2023-01-07T23:09:13.365Z,4.48
2023-01-07T23:11:51.132Z,4.44
2023-01-07T23:14:21.241Z,4.44
2023-01-07T23:16:50.364Z,4.41
2023-01-07T23:19:19.524Z,4.36
2023-01-07T23:21:51.795Z,4.37
2023-01-07T23:24:22.085Z,4.37
2023-01-07T23:26:53.267Z,4.40
2023-01-07T23:29:22.130Z,4.43
2023-01-07T23:31:50.905Z,4.46
2023-01-07T23:34:19.784Z,4.52
2023-01-07T23:36:48.417Z,4.49
2023-01-07T23:39:17.510Z,4.53
2023-01-07T23:41:48.197Z,4.61
2023-01-07T23:44:20.069Z,4.63
2023-01-07T23:46:55.485Z,4.61
2023-01-07T23:49:24.279Z,4.47
2023-01-07T23:51:53.463Z,4.42
2023-01-07T23:54:24.220Z,4.44
2023-01-07T23:56:54.835Z,4.43
2023-01-07T23:59:24.070Z,4.38
